Time;durP1;ratioP1;P1;durP2;ratioP2;P2;SDS_P1;SDS_P2;PMS_P1;PMS_P2;Temp;Humidity;BMP_temperature;BMP_pressure;BME280_temperature;BME280_humidity;BME280_pressure;Samples;Min_cycle;Max_cycle;Signal;HPM_P1;HPM_P2
2022/05/13 00:00:35;;;;;;;32.67;25.95;;;8.10;99.90;;;;;;4971358;28;20058;-70
2022/05/13 00:03:02;;;;;;;28.80;25.70;;;8.00;99.90;;;;;;4997544;28;20085;-70
2022/05/13 00:05:29;;;;;;;27.95;25.17;;;7.80;99.90;;;;;;4999468;28;20046;-70
2022/05/13 00:07:55;;;;;;;32.13;24.98;;;7.60;99.90;;;;;;4998587;28;20048;-70
2022/05/13 00:10:24;;;;;;;26.80;23.60;;;7.60;99.90;;;;;;4972012;28;20252;-70
2022/05/13 00:12:52;;;;;;;28.77;23.80;;;7.60;99.90;;;;;;4981855;28;20057;-71
2022/05/13 00:15:24;;;;;;;30.08;24.02;;;7.70;99.90;;;;;;4998926;28;20212;-70
2022/05/13 00:17:54;;;;;;;27.45;24.67;;;7.60;99.90;;;;;;5016347;28;20049;-70
2022/05/13 00:20:22;;;;;;;30.90;25.10;;;7.50;99.90;;;;;;4996335;28;20096;-70
2022/05/13 00:22:52;;;;;;;29.17;25.00;;;7.60;99.90;;;;;;4996859;28;20100;-70
2022/05/13 00:25:22;;;;;;;26.88;23.88;;;7.60;99.90;;;;;;5008720;28;20076;-70
2022/05/13 00:27:49;;;;;;;28.35;24.80;;;7.50;99.90;;;;;;5017753;28;20485;-70
2022/05/13 00:30:16;;;;;;;27.83;24.63;;;7.60;99.90;;;;;;5016280;28;20045;-69
2022/05/13 00:32:44;;;;;;;29.38;25.60;;;7.50;99.90;;;;;;4998011;28;20173;-71
2022/05/13 00:35:11;;;;;;;27.98;25.25;;;7.50;99.90;;;;;;4978797;28;20520;-70
2022/05/13 00:37:38;;;;;;;28.83;25.85;;;7.50;99.90;;;;;;4998460;28;20100;-70
2022/05/13 00:40:06;;;;;;;28.13;25.23;;;7.40;99.90;;;;;;4979908;28;20438;-69
2022/05/13 00:42:33;;;;;;;27.60;24.25;;;7.50;99.90;;;;;;5004061;28;20048;-70
2022/05/13 00:45:00;;;;;;;25.55;23.08;;;7.50;99.90;;;;;;5011828;28;20651;-69
2022/05/13 00:47:27;;;;;;;30.02;25.33;;;7.40;99.90;;;;;;5018228;28;20045;-70
2022/05/13 00:49:55;;;;;;;27.80;24.48;;;7.50;99.90;;;;;;4992566;28;20308;-70
2022/05/13 00:52:24;;;;;;;28.98;24.65;;;7.40;99.90;;;;;;4989498;28;20042;-70
2022/05/13 00:54:52;;;;;;;30.63;24.58;;;7.40;99.90;;;;;;4996129;28;20449;-70
2022/05/13 00:57:21;;;;;;;28.95;24.08;;;7.40;99.90;;;;;;4997704;28;20104;-69
2022/05/13 00:59:50;;;;;;;27.10;23.95;;;7.30;99.90;;;;;;4998184;28;20453;-70
2022/05/13 01:02:17;;;;;;;28.42;24.02;;;7.30;99.90;;;;;;4996051;28;20045;-69
2022/05/13 01:04:44;;;;;;;29.65;24.85;;;7.30;99.90;;;;;;4979864;28;20348;-70
2022/05/13 01:07:19;;;;;;;27.50;22.50;;;7.30;99.90;;;;;;4998051;28;20045;-70
2022/05/13 01:09:51;;;;;;;28.73;23.15;;;7.40;99.90;;;;;;4992191;28;20395;-70
2022/05/13 01:12:22;;;;;;;25.80;23.08;;;7.40;99.90;;;;;;4999700;28;20587;-70
2022/05/13 01:14:56;;;;;;;33.67;23.90;;;7.40;99.90;;;;;;4999556;28;20050;-69
2022/05/13 01:20:12;;;;;;;26.95;21.90;;;7.60;99.90;;;;;;5013152;28;20103;-70
2022/05/13 01:22:49;;;;;;;25.30;22.60;;;7.40;99.90;;;;;;5010469;28;20104;-70
2022/05/13 01:25:20;;;;;;;24.77;22.23;;;7.40;99.90;;;;;;4995986;28;20046;-70
2022/05/13 01:27:48;;;;;;;24.02;21.60;;;7.40;99.90;;;;;;4998004;28;20049;-69
2022/05/13 01:30:20;;;;;;;23.77;21.38;;;7.40;99.90;;;;;;4996568;28;20263;-69
2022/05/13 01:32:46;;;;;;;28.33;22.65;;;7.40;99.90;;;;;;4979315;28;20060;-70
2022/05/13 01:35:13;;;;;;;34.58;24.10;;;7.50;99.90;;;;;;4995116;28;20075;-70
2022/05/13 01:37:41;;;;;;;25.30;22.60;;;7.60;99.90;;;;;;4998117;28;20049;-69
2022/05/13 01:40:08;;;;;;;26.98;23.65;;;7.60;99.90;;;;;;4981692;28;20046;-68
2022/05/13 01:42:37;;;;;;;27.13;23.23;;;7.70;99.90;;;;;;4975097;28;20148;-70
2022/05/13 01:45:07;;;;;;;28.05;22.85;;;7.50;99.90;;;;;;5011309;28;20049;-69
2022/05/13 01:47:34;;;;;;;25.45;22.77;;;7.60;99.90;;;;;;5014957;28;20049;-69
2022/05/13 01:50:02;;;;;;;29.05;23.02;;;7.80;99.90;;;;;;4963048;28;20101;-70
2022/05/13 01:52:29;;;;;;;26.85;23.88;;;7.70;99.90;;;;;;4978857;28;20050;-70
2022/05/13 01:54:56;;;;;;;26.35;23.35;;;7.40;99.90;;;;;;4992159;28;20054;-70
2022/05/13 01:57:22;;;;;;;29.00;23.23;;;7.40;99.90;;;;;;4979198;28;20050;-69
2022/05/13 01:59:49;;;;;;;32.40;23.73;;;7.50;99.90;;;;;;4997694;28;20482;-70
2022/05/13 02:02:16;;;;;;;26.88;23.48;;;7.50;99.90;;;;;;4996466;28;20049;-70
2022/05/13 02:04:43;;;;;;;24.67;22.13;;;7.50;99.90;;;;;;4995624;28;20215;-69
2022/05/13 02:07:10;;;;;;;25.85;22.48;;;7.50;99.90;;;;;;4996093;28;20049;-70
2022/05/13 02:09:37;;;;;;;26.88;22.83;;;7.50;99.90;;;;;;4985615;28;20735;-69
2022/05/13 02:12:14;;;;;;;25.17;22.55;;;7.30;99.90;;;;;;4985229;28;20048;-71
2022/05/13 02:14:40;;;;;;;25.75;23.23;;;7.10;99.90;;;;;;4968150;28;20051;-71
2022/05/13 02:17:07;;;;;;;31.33;24.48;;;7.00;99.90;;;;;;4953198;28;20055;-71
2022/05/13 02:19:34;;;;;;;29.58;24.10;;;7.00;99.90;;;;;;4957046;28;20047;-71
2022/05/13 02:22:01;;;;;;;26.35;23.80;;;7.00;99.90;;;;;;4953794;28;20280;-71
2022/05/13 02:24:28;;;;;;;27.48;24.52;;;7.00;99.90;;;;;;4940226;28;20047;-71
2022/05/13 02:26:55;;;;;;;36.45;25.38;;;7.00;99.90;;;;;;4961163;28;20538;-71
2022/05/13 02:29:22;;;;;;;28.85;25.67;;;7.00;99.90;;;;;;4943371;28;20097;-71
2022/05/13 02:31:48;;;;;;;26.67;23.95;;;6.90;99.90;;;;;;4941538;28;20051;-71
2022/05/13 02:34:15;;;;;;;28.40;25.17;;;6.90;99.90;;;;;;4960043;28;20109;-71
2022/05/13 02:36:42;;;;;;;29.88;25.65;;;6.80;99.90;;;;;;4942400;28;20047;-71
2022/05/13 02:39:09;;;;;;;27.90;24.92;;;6.80;99.90;;;;;;4957464;28;20090;-71
2022/05/13 02:41:36;;;;;;;33.35;25.58;;;6.70;99.90;;;;;;4958432;28;20546;-71
2022/05/13 02:44:03;;;;;;;28.15;25.20;;;6.70;99.90;;;;;;4959624;28;20047;-72
2022/05/13 02:46:32;;;;;;;28.98;24.48;;;6.70;99.90;;;;;;4959224;28;20280;-71
2022/05/13 02:49:00;;;;;;;27.80;25.02;;;6.50;99.90;;;;;;4943578;28;20058;-72
2022/05/13 02:51:28;;;;;;;29.73;26.10;;;6.60;99.90;;;;;;4960379;28;20054;-71
2022/05/13 02:53:55;;;;;;;27.98;24.75;;;6.60;99.90;;;;;;4960334;28;20443;-71
2022/05/13 02:56:22;;;;;;;27.80;24.20;;;6.50;99.90;;;;;;4974023;28;20517;-72
2022/05/13 02:58:49;;;;;;;29.27;24.13;;;6.60;99.90;;;;;;4961133;28;20054;-71
2022/05/13 03:01:18;;;;;;;28.40;25.42;;;6.60;99.90;;;;;;4958529;28;20053;-71
2022/05/13 03:03:47;;;;;;;28.73;24.98;;;6.50;99.90;;;;;;4957582;28;20035;-70
2022/05/13 03:06:14;;;;;;;27.88;23.05;;;6.50;99.90;;;;;;4965110;28;20058;-71
2022/05/13 03:08:42;;;;;;;27.92;23.92;;;6.50;99.90;;;;;;4975859;28;20118;-71
2022/05/13 03:11:09;;;;;;;29.73;25.02;;;6.30;99.90;;;;;;4957574;28;20117;-71
2022/05/13 03:13:36;;;;;;;30.77;25.05;;;6.30;99.90;;;;;;4956426;28;20051;-71
2022/05/13 03:16:09;;;;;;;27.02;24.15;;;6.40;99.90;;;;;;4960174;28;20058;-71
2022/05/13 03:18:39;;;;;;;27.10;24.20;;;6.30;99.90;;;;;;4961451;28;20317;-70
2022/05/13 03:21:06;;;;;;;27.00;24.08;;;6.30;99.90;;;;;;4960329;28;20050;-71
2022/05/13 03:23:33;;;;;;;25.65;22.92;;;6.20;99.90;;;;;;4973543;28;20129;-70
2022/05/13 03:26:00;;;;;;;28.42;24.15;;;6.30;99.90;;;;;;4959665;28;20047;-70
2022/05/13 03:28:27;;;;;;;31.02;24.40;;;6.40;99.90;;;;;;4960108;28;20074;-71
2022/05/13 03:30:54;;;;;;;28.38;24.75;;;6.30;99.90;;;;;;4959201;28;20602;-70
2022/05/13 03:33:21;;;;;;;28.13;25.25;;;6.30;99.90;;;;;;4973615;28;20539;-70
2022/05/13 03:35:48;;;;;;;31.13;25.42;;;6.40;99.90;;;;;;4939947;28;20046;-70
2022/05/13 03:38:14;;;;;;;34.22;25.10;;;6.40;99.90;;;;;;4940385;28;20050;-70
2022/05/13 03:40:41;;;;;;;29.40;23.98;;;6.40;99.90;;;;;;4954480;28;20129;-70
2022/05/13 03:43:08;;;;;;;27.77;23.95;;;6.50;99.90;;;;;;4947105;28;20069;-70
2022/05/13 03:45:36;;;;;;;33.17;24.52;;;6.50;99.90;;;;;;4947060;28;20686;-70
2022/05/13 03:48:05;;;;;;;30.15;24.00;;;6.50;99.90;;;;;;4935986;28;20590;-70
2022/05/13 03:50:33;;;;;;;28.67;23.63;;;6.50;99.90;;;;;;4958251;28;20050;-70
2022/05/13 03:53:02;;;;;;;30.65;24.38;;;6.40;99.90;;;;;;4956408;28;20058;-70
2022/05/13 03:55:29;;;;;;;27.27;23.88;;;6.30;99.90;;;;;;4958338;28;20043;-70
2022/05/13 03:57:57;;;;;;;26.85;23.98;;;6.30;99.90;;;;;;4941941;28;20047;-70
2022/05/13 04:00:25;;;;;;;27.63;22.50;;;6.30;99.90;;;;;;4958265;28;20125;-70
2022/05/13 04:02:53;;;;;;;29.15;23.08;;;6.50;99.90;;;;;;4958098;28;20527;-69
2022/05/13 04:10:52;;;;;;;27.02;23.50;;;6.60;99.90;;;;;;4972170;28;20612;-70
2022/05/13 04:16:08;;;;;;;29.77;24.10;;;6.50;99.90;;;;;;4957159;28;20050;-70
2022/05/13 04:18:37;;;;;;;26.67;23.80;;;6.40;99.90;;;;;;4941290;28;20236;-70
2022/05/13 04:21:10;;;;;;;28.80;25.73;;;6.50;99.90;;;;;;4941402;28;20047;-70
2022/05/13 04:23:39;;;;;;;32.90;26.48;;;6.50;99.90;;;;;;4939895;28;20111;-70
2022/05/13 04:26:06;;;;;;;28.70;24.33;;;6.50;99.90;;;;;;4945755;28;20534;-70
2022/05/13 04:28:33;;;;;;;28.70;25.30;;;6.70;99.90;;;;;;4957189;28;20054;-69
2022/05/13 04:31:00;;;;;;;27.67;24.73;;;6.70;99.90;;;;;;4956870;28;20415;-70
2022/05/13 04:33:34;;;;;;;28.02;25.02;;;6.60;99.90;;;;;;4958363;28;20490;-69
2022/05/13 04:36:02;;;;;;;27.65;24.85;;;6.90;99.90;;;;;;4957891;28;20090;-70
2022/05/13 04:38:28;;;;;;;28.33;25.10;;;6.90;99.90;;;;;;4972766;28;20106;-70
2022/05/13 04:40:55;;;;;;;28.25;23.63;;;7.20;99.90;;;;;;4956267;28;20558;-69
2022/05/13 04:43:22;;;;;;;32.70;24.25;;;7.30;99.90;;;;;;4956740;28;20050;-70
2022/05/13 04:45:49;;;;;;;27.35;23.63;;;7.50;99.90;;;;;;4962156;28;20132;-70
2022/05/13 04:48:19;;;;;;;26.70;23.88;;;7.70;99.90;;;;;;4977821;28;20058;-70
2022/05/13 04:50:51;;;;;;;27.67;24.80;;;7.80;99.90;;;;;;4947525;28;20182;-69
2022/05/13 04:53:25;;;;;;;28.27;23.75;;;7.90;99.90;;;;;;4939589;28;20109;-70
2022/05/13 04:55:53;;;;;;;26.55;23.80;;;8.00;99.90;;;;;;4943680;28;20038;-70
2022/05/13 04:58:22;;;;;;;26.75;24.02;;;8.20;99.90;;;;;;4976558;28;20080;-70
2022/05/13 05:00:51;;;;;;;27.80;24.77;;;8.10;99.90;;;;;;4977157;28;20058;-70
2022/05/13 05:03:19;;;;;;;27.65;24.80;;;8.30;99.90;;;;;;4974568;28;20717;-71
2022/05/13 05:05:46;;;;;;;28.25;25.10;;;8.40;99.90;;;;;;4942843;28;20611;-70
2022/05/13 05:08:14;;;;;;;28.58;25.02;;;8.50;99.90;;;;;;4956414;28;20062;-70
2022/05/13 05:10:43;;;;;;;28.30;25.50;;;8.50;99.90;;;;;;4939160;28;20110;-70
2022/05/13 05:13:16;;;;;;;27.17;24.40;;;8.60;99.90;;;;;;4939183;28;20749;-70
2022/05/13 05:15:45;;;;;;;28.05;25.10;;;8.80;99.90;;;;;;4956369;28;20117;-70
2022/05/13 05:18:13;;;;;;;28.60;25.65;;;9.00;99.90;;;;;;4969982;28;20137;-71
2022/05/13 05:20:41;;;;;;;31.40;26.83;;;9.20;99.90;;;;;;4953330;28;20519;-71
2022/05/13 05:23:16;;;;;;;30.15;27.27;;;9.40;99.90;;;;;;4941084;28;20055;-71
2022/05/13 05:25:44;;;;;;;29.65;27.20;;;9.60;99.90;;;;;;4956287;28;20090;-70
2022/05/13 05:28:11;;;;;;;29.10;26.65;;;9.80;99.90;;;;;;4957546;28;20074;-70
2022/05/13 05:30:39;;;;;;;29.95;27.30;;;10.00;99.90;;;;;;4954309;28;20443;-71
2022/05/13 05:33:06;;;;;;;28.98;26.25;;;10.30;99.90;;;;;;4954992;28;20372;-71
2022/05/13 05:35:33;;;;;;;27.73;25.52;;;10.60;99.90;;;;;;4938630;28;20062;-71
2022/05/13 05:38:01;;;;;;;31.15;28.08;;;10.70;99.90;;;;;;4936330;28;20121;-71
2022/05/13 05:40:28;;;;;;;29.55;27.08;;;10.80;99.90;;;;;;4939595;28;20043;-70
2022/05/13 05:42:54;;;;;;;28.98;26.67;;;10.90;99.90;;;;;;4952936;28;20424;-70
2022/05/13 05:45:22;;;;;;;30.50;27.85;;;10.90;99.90;;;;;;4953264;28;20133;-71
2022/05/13 05:47:50;;;;;;;29.50;26.90;;;11.10;99.90;;;;;;4960631;28;20387;-72
2022/05/13 05:50:19;;;;;;;30.75;28.23;;;11.10;99.90;;;;;;4966954;28;20693;-70
2022/05/13 05:52:46;;;;;;;30.45;27.85;;;11.10;99.90;;;;;;4953145;28;20137;-70
2022/05/13 05:58:09;;;;;;;27.08;24.67;;;11.00;99.90;;;;;;4955633;28;20074;-70
2022/05/13 06:00:39;;;;;;;28.55;26.05;;;11.00;99.90;;;;;;4955798;28;20117;-73
2022/05/13 06:03:06;;;;;;;27.73;25.38;;;11.00;99.90;;;;;;4953547;28;20061;-70
2022/05/13 06:05:33;;;;;;;28.08;25.77;;;10.80;99.90;;;;;;4969431;28;20051;-71
2022/05/13 06:08:04;;;;;;;27.70;24.92;;;10.90;99.90;;;;;;4956073;28;20105;-71
2022/05/13 06:10:32;;;;;;;27.42;24.95;;;10.90;99.90;;;;;;4956689;28;20058;-74
2022/05/13 06:12:59;;;;;;;27.35;24.70;;;10.80;99.90;;;;;;4940545;28;20046;-74
2022/05/13 06:15:25;;;;;;;27.00;24.30;;;10.90;99.90;;;;;;4972090;28;20104;-73
2022/05/13 06:17:55;;;;;;;26.38;24.15;;;10.90;99.90;;;;;;4955362;28;20078;-75
2022/05/13 06:20:25;;;;;;;27.30;24.88;;;10.90;99.90;;;;;;4940618;28;20089;-74
2022/05/13 06:22:52;;;;;;;27.38;24.98;;;11.00;99.90;;;;;;4937843;28;20054;-75
2022/05/13 06:25:19;;;;;;;27.38;24.63;;;11.00;99.90;;;;;;4966977;28;20522;-72
2022/05/13 06:27:48;;;;;;;27.83;25.08;;;11.20;99.90;;;;;;4972496;28;20505;-72
2022/05/13 06:30:25;;;;;;;27.10;24.73;;;11.60;99.90;;;;;;4955298;28;20054;-73
2022/05/13 06:32:53;;;;;;;28.73;25.90;;;11.90;99.90;;;;;;4971517;28;20050;-73
2022/05/13 06:35:21;;;;;;;29.15;26.30;;;12.00;99.90;;;;;;4939591;28;20057;-73
2022/05/13 06:37:48;;;;;;;27.80;25.17;;;11.80;99.90;;;;;;4957577;28;20047;-71
2022/05/13 06:40:15;;;;;;;27.52;24.98;;;11.80;99.90;;;;;;4958635;28;20050;-73
2022/05/13 06:42:42;;;;;;;26.95;24.05;;;12.10;99.90;;;;;;4951868;28;20042;-72
2022/05/13 06:45:12;;;;;;;25.92;23.70;;;12.40;99.90;;;;;;4936317;28;20410;-74
2022/05/13 06:47:39;;;;;;;25.38;23.27;;;12.40;99.90;;;;;;4957023;28;20092;-75
2022/05/13 06:50:08;;;;;;;23.83;21.98;;;12.30;99.90;;;;;;4939758;28;20055;-73
2022/05/13 06:52:36;;;;;;;24.48;22.33;;;12.20;99.90;;;;;;4956229;28;20141;-74
2022/05/13 06:55:09;;;;;;;23.30;21.33;;;12.00;99.90;;;;;;4954838;28;20051;-75
2022/05/13 06:57:39;;;;;;;24.65;22.42;;;12.00;99.90;;;;;;4957181;28;20109;-73
2022/05/13 07:00:08;;;;;;;24.85;22.65;;;11.80;99.90;;;;;;4955154;28;20729;-74
2022/05/13 07:02:35;;;;;;;27.00;24.20;;;11.70;99.90;;;;;;4939983;28;20762;-72
2022/05/13 07:05:03;;;;;;;25.98;23.55;;;11.70;99.90;;;;;;4956254;28;20111;-74
2022/05/13 07:07:30;;;;;;;24.10;22.27;;;11.70;99.90;;;;;;4956586;28;20074;-74
2022/05/13 07:09:57;;;;;;;24.95;22.75;;;11.80;99.90;;;;;;4960368;28;20132;-72
2022/05/13 07:12:24;;;;;;;25.08;23.10;;;11.90;99.90;;;;;;4943500;28;20047;-72
2022/05/13 07:14:50;;;;;;;25.23;23.08;;;11.90;99.90;;;;;;4945242;28;20038;-72
2022/05/13 07:17:17;;;;;;;24.58;22.67;;;12.00;99.90;;;;;;4961401;28;20102;-72
2022/05/13 07:19:44;;;;;;;24.35;22.25;;;12.00;99.90;;;;;;4978714;28;20054;-72
2022/05/13 07:22:11;;;;;;;26.00;23.20;;;12.10;99.90;;;;;;4978109;28;20476;-72
2022/05/13 07:24:38;;;;;;;25.50;22.88;;;12.30;99.90;;;;;;4958902;28;20164;-73
2022/05/13 07:27:06;;;;;;;25.67;23.23;;;12.30;99.90;;;;;;4973482;28;20046;-73
2022/05/13 07:29:33;;;;;;;26.02;23.58;;;12.30;99.90;;;;;;4959789;28;20214;-72
2022/05/13 07:31:59;;;;;;;27.27;24.40;;;12.20;99.90;;;;;;4959637;28;20046;-72
2022/05/13 07:34:26;;;;;;;27.70;25.08;;;12.00;99.90;;;;;;4976987;28;20050;-74
2022/05/13 07:36:54;;;;;;;26.48;23.98;;;11.80;99.90;;;;;;4957705;28;20046;-73
2022/05/13 07:42:09;;;;;;;26.33;24.00;;;11.90;99.90;;;;;;4956909;28;20151;-73
2022/05/13 07:44:37;;;;;;;27.90;25.10;;;12.10;99.90;;;;;;4954370;28;20157;-74
2022/05/13 07:47:06;;;;;;;28.73;25.92;;;12.20;99.90;;;;;;4973716;28;20039;-75
2022/05/13 07:49:34;;;;;;;30.13;27.05;;;12.20;99.90;;;;;;4962033;28;20411;-77
2022/05/13 07:52:05;;;;;;;30.75;25.48;;;12.40;99.90;;;;;;4942797;28;20058;-77
2022/05/13 07:54:32;;;;;;;28.67;25.73;;;12.60;99.90;;;;;;4941902;28;20047;-77
2022/05/13 07:56:59;;;;;;;32.50;28.17;;;12.90;99.90;;;;;;4957821;28;20038;-77
2022/05/13 07:59:26;;;;;;;32.00;26.77;;;13.00;99.90;;;;;;4975576;28;20496;-77
2022/05/13 08:01:54;;;;;;;30.83;27.77;;;12.90;99.90;;;;;;4959674;28;20042;-76
2022/05/13 08:04:21;;;;;;;32.42;28.00;;;12.90;99.90;;;;;;4955706;28;20488;-73
2022/05/13 08:06:48;;;;;;;29.23;26.08;;;12.80;99.90;;;;;;4939728;28;20113;-75
2022/05/13 08:09:15;;;;;;;30.23;27.13;;;12.70;99.90;;;;;;4974783;28;20288;-78
2022/05/13 08:11:43;;;;;;;28.52;26.10;;;12.70;99.90;;;;;;4958082;28;20043;-77
2022/05/13 08:14:11;;;;;;;30.85;27.55;;;12.60;99.90;;;;;;4989873;23;20058;-69
2022/05/13 08:16:38;;;;;;;32.75;26.83;;;12.50;99.90;;;;;;4991740;28;20042;-70
2022/05/13 08:19:05;;;;;;;30.00;26.10;;;12.50;99.90;;;;;;4995629;28;20521;-71
2022/05/13 08:21:32;;;;;;;30.48;26.85;;;12.50;99.90;;;;;;4978649;28;20112;-71
2022/05/13 08:23:59;;;;;;;29.58;26.08;;;12.50;99.90;;;;;;4984380;28;20348;-69
2022/05/13 08:26:26;;;;;;;28.15;25.40;;;12.60;99.90;;;;;;4959764;28;20205;-73
2022/05/13 08:28:53;;;;;;;26.10;24.10;;;12.70;99.90;;;;;;4960772;28;20109;-72
2022/05/13 08:31:20;;;;;;;27.55;24.83;;;12.70;99.90;;;;;;4959154;28;20192;-72
2022/05/13 08:33:46;;;;;;;27.58;25.00;;;12.90;99.90;;;;;;4972695;28;20141;-72
2022/05/13 08:36:15;;;;;;;28.20;25.27;;;13.20;99.90;;;;;;4958321;28;20054;-73
2022/05/13 08:38:43;;;;;;;28.25;25.33;;;13.70;99.90;;;;;;4988855;28;20055;-72
2022/05/13 08:41:10;;;;;;;27.13;24.85;;;13.80;99.90;;;;;;4977271;28;20050;-72
2022/05/13 08:43:51;;;;;;;26.73;24.30;;;14.20;99.90;;;;;;4958846;28;20457;-71
2022/05/13 08:46:38;;;;;;;26.40;24.10;;;14.50;99.90;;;;;;4973484;28;20560;-72
2022/05/13 08:49:23;;;;;;;27.40;24.75;;;14.80;99.90;;;;;;5000641;28;20073;-71
2022/05/13 08:55:01;;;;;;;26.80;23.85;;;14.90;99.90;;;;;;4958568;28;20543;-71
2022/05/13 08:57:31;;;;;;;26.70;24.52;;;15.60;99.90;;;;;;4959083;28;20082;-70
2022/05/13 09:00:08;;;;;;;27.52;25.08;;;15.40;99.90;;;;;;4977993;28;20238;-70
2022/05/13 09:02:39;;;;;;;26.55;24.15;;;15.30;99.90;;;;;;4974820;28;20093;-73
2022/05/13 09:05:37;;;;;;;23.80;22.33;;;15.80;99.90;;;;;;4958526;28;20065;-69
2022/05/13 09:08:06;;;;;;;25.38;23.20;;;16.00;99.90;;;;;;4975522;28;20113;-72
2022/05/13 09:10:49;;;;;;;25.17;23.10;;;16.50;99.90;;;;;;4990423;28;20061;-70
2022/05/13 09:13:27;;;;;;;24.83;22.70;;;16.70;99.90;;;;;;5007494;28;20335;-71
2022/05/13 09:15:58;;;;;;;25.73;23.58;;;16.20;99.90;;;;;;4999871;28;20445;-71
2022/05/13 09:18:33;;;;;;;24.83;22.90;;;15.70;99.90;;;;;;4960446;28;20077;-72
2022/05/13 09:21:15;;;;;;;24.67;22.17;;;15.50;99.90;;;;;;4991695;28;20096;-71
2022/05/13 09:23:42;;;;;;;24.52;22.48;;;15.50;99.90;;;;;;4959186;28;20096;-70
2022/05/13 09:26:10;;;;;;;26.23;23.98;;;15.30;99.90;;;;;;4959925;28;20656;-72
2022/05/13 09:28:57;;;;;;;25.73;23.70;;;15.30;99.90;;;;;;4959493;28;20057;-70
2022/05/13 09:31:28;;;;;;;22.83;21.20;;;15.60;99.90;;;;;;4976842;28;20046;-72
2022/05/13 09:34:26;;;;;;;25.45;23.40;;;15.80;99.90;;;;;;4972325;28;20057;-71
2022/05/13 09:37:12;;;;;;;24.42;22.02;;;15.50;99.90;;;;;;4965983;28;20586;-71
2022/05/13 09:39:44;;;;;;;22.08;20.48;;;16.30;99.90;;;;;;4962316;28;20092;-71
2022/05/13 09:42:51;;;;;;;23.52;21.15;;;16.30;99.90;;;;;;4981108;28;20402;-71
2022/05/13 09:45:20;;;;;;;23.30;21.42;;;15.90;99.90;;;;;;4955532;28;20057;-71
2022/05/13 09:47:58;;;;;;;23.00;21.10;;;15.40;99.90;;;;;;4978301;28;20066;-71
2022/05/13 09:50:27;;;;;;;24.90;22.88;;;15.30;99.90;;;;;;4976191;28;21050;-71
2022/05/13 09:53:02;;;;;;;24.67;22.42;;;15.00;99.90;;;;;;4976943;28;20062;-72
2022/05/13 09:55:41;;;;;;;24.00;22.23;;;14.80;99.90;;;;;;4976898;28;20042;-73
2022/05/13 09:58:29;;;;;;;24.30;22.70;;;14.80;99.90;;;;;;4977459;28;20108;-73
2022/05/13 10:01:09;;;;;;;23.58;21.80;;;14.70;99.90;;;;;;4974585;28;20065;-72
2022/05/13 10:03:38;;;;;;;26.17;23.40;;;14.70;99.90;;;;;;4975003;28;20111;-71
2022/05/13 10:06:09;;;;;;;23.90;22.15;;;14.80;99.90;;;;;;4973436;28;20042;-70
2022/05/13 10:08:51;;;;;;;24.13;22.42;;;15.00;99.90;;;;;;4974468;28;20081;-71
2022/05/13 10:14:29;;;;;;;23.15;21.58;;;14.90;99.90;;;;;;4963301;28;20054;-70
2022/05/13 10:17:13;;;;;;;23.85;22.20;;;15.10;99.90;;;;;;4977695;28;20065;-70
2022/05/13 10:19:56;;;;;;;23.85;22.25;;;15.10;99.90;;;;;;4976593;28;20116;-70
2022/05/13 10:22:33;;;;;;;23.67;21.83;;;15.10;99.90;;;;;;4976523;28;20254;-71
2022/05/13 10:25:05;;;;;;;24.05;21.92;;;15.30;99.90;;;;;;4975207;28;20112;-72
2022/05/13 10:27:36;;;;;;;23.73;21.85;;;15.40;99.90;;;;;;4977145;28;20670;-71
2022/05/13 10:30:15;;;;;;;24.23;22.42;;;15.30;99.90;;;;;;4990400;28;20124;-71
2022/05/13 10:32:45;;;;;;;24.35;22.45;;;15.30;99.90;;;;;;4958083;28;20132;-71
2022/05/13 10:35:17;;;;;;;24.25;22.20;;;15.50;99.90;;;;;;4989463;28;20101;-69
2022/05/13 10:38:04;;;;;;;24.25;22.23;;;15.40;99.90;;;;;;4977054;28;20042;-70
2022/05/13 10:40:41;;;;;;;23.63;22.02;;;15.40;99.90;;;;;;4990291;28;20069;-73
2022/05/13 10:43:28;;;;;;;24.85;22.73;;;15.10;99.90;;;;;;4959221;28;20349;-71
2022/05/13 10:46:16;;;;;;;24.17;22.33;;;15.00;99.90;;;;;;4994535;28;20042;-73
2022/05/13 10:48:48;;;;;;;23.60;21.85;;;15.00;99.90;;;;;;4981618;28;20367;-71
2022/05/13 10:51:29;;;;;;;22.63;21.13;;;15.00;99.90;;;;;;4980740;28;20050;-71
2022/05/13 10:54:25;;;;;;;24.05;22.17;;;15.20;99.90;;;;;;4963305;28;20050;-72
2022/05/13 10:56:57;;;;;;;23.33;21.65;;;15.20;99.90;;;;;;4980000;28;20517;-71
2022/05/13 10:59:44;;;;;;;24.00;22.23;;;15.20;99.90;;;;;;4963399;28;20082;-71
2022/05/13 11:02:42;;;;;;;23.98;21.85;;;15.00;99.90;;;;;;4971015;28;20050;-70
2022/05/13 11:05:33;;;;;;;24.85;23.17;;;15.10;99.90;;;;;;4995081;28;20413;-72
2022/05/13 11:08:20;;;;;;;27.83;25.77;;;15.20;99.90;;;;;;4963773;28;20601;-69
2022/05/13 11:11:06;;;;;;;24.30;22.25;;;15.40;99.90;;;;;;4960457;28;20038;-71
2022/05/13 11:13:43;;;;;;;22.45;20.90;;;16.20;99.90;;;;;;4985141;28;20456;-71
2022/05/13 11:16:32;;;;;;;24.48;22.27;;;16.70;99.90;;;;;;4983057;28;20057;-71
2022/05/13 11:19:06;;;;;;;22.20;20.88;;;16.40;99.90;;;;;;4983148;28;20050;-71
2022/05/13 11:22:06;;;;;;;24.73;22.83;;;16.20;99.90;;;;;;4980992;28;20061;-71
2022/05/13 11:28:10;;;;;;;23.83;22.15;;;16.20;99.90;;;;;;4975783;28;20046;-73
2022/05/13 11:30:45;;;;;;;23.35;21.52;;;16.20;99.90;;;;;;4979759;28;20056;-71
2022/05/13 11:33:28;;;;;;;;;;;16.20;99.90;;;;;;4962711;28;20137;-71
2022/05/13 11:36:08;;;;;;;25.35;23.15;;;16.10;99.90;;;;;;4976969;28;20016;-72
2022/05/13 11:38:40;;;;;;;24.98;23.05;;;15.70;99.90;;;;;;4977106;28;20102;-70
2022/05/13 11:41:13;;;;;;;25.30;23.70;;;15.50;99.90;;;;;;4979752;28;20306;-70
2022/05/13 11:44:03;;;;;;;25.30;23.42;;;15.60;99.90;;;;;;4982501;28;20136;-72
2022/05/13 11:46:48;;;;;;;25.75;23.92;;;15.60;99.90;;;;;;4999003;28;20533;-71
2022/05/13 11:49:25;;;;;;;24.85;23.10;;;15.80;99.90;;;;;;5004684;28;20458;-71
2022/05/13 11:51:54;;;;;;;26.35;24.75;;;15.90;99.90;;;;;;4973585;28;20236;-71
2022/05/13 11:54:27;;;;;;;26.48;24.58;;;15.90;99.90;;;;;;4976800;28;20054;-70
2022/05/13 11:57:16;;;;;;;25.38;23.85;;;15.60;99.90;;;;;;4977427;28;20620;-71
2022/05/13 11:59:49;;;;;;;26.08;24.13;;;15.50;99.90;;;;;;4979550;28;20049;-71
2022/05/13 12:02:38;;;;;;;26.20;24.45;;;15.30;99.90;;;;;;4979025;28;20046;-71
2022/05/13 12:05:10;;;;;;;26.50;24.70;;;15.30;99.90;;;;;;4959968;28;20105;-71
2022/05/13 12:08:03;;;;;;;24.80;22.90;;;15.30;99.90;;;;;;4979009;28;20054;-70
2022/05/13 12:10:52;;;;;;;24.45;22.98;;;15.40;99.90;;;;;;4973977;28;20065;-72
2022/05/13 12:13:40;;;;;;;25.77;23.83;;;15.70;99.90;;;;;;4989433;28;20340;-71
2022/05/13 12:16:26;;;;;;;25.98;24.27;;;16.10;99.90;;;;;;4979128;28;20050;-70
2022/05/13 12:19:00;;;;;;;26.52;24.75;;;15.90;99.90;;;;;;4978756;28;20054;-71
2022/05/13 12:21:42;;;;;;;27.02;24.88;;;15.90;99.90;;;;;;4978668;28;20497;-71
2022/05/13 12:24:11;;;;;;;25.13;23.30;;;15.80;99.90;;;;;;4977926;28;20039;-71
2022/05/13 12:26:53;;;;;;;27.15;25.13;;;15.80;99.90;;;;;;4960433;28;20054;-72
2022/05/13 12:29:23;;;;;;;25.98;24.05;;;15.70;99.90;;;;;;4976915;28;20072;-72
2022/05/13 12:31:55;;;;;;;26.02;23.60;;;15.70;99.90;;;;;;4976557;28;20054;-71
2022/05/13 12:37:38;;;;;;;26.85;24.33;;;15.70;99.90;;;;;;4977591;28;20580;-69
2022/05/13 12:40:34;;;;;;;28.33;26.02;;;16.00;99.90;;;;;;4990523;28;20052;-69
2022/05/13 12:43:14;;;;;;;27.73;25.65;;;15.90;99.90;;;;;;4976171;28;20133;-72
2022/05/13 12:45:45;;;;;;;28.17;26.08;;;16.20;99.90;;;;;;4958994;28;20387;-74
2022/05/13 12:48:16;;;;;;;26.83;24.92;;;16.40;99.90;;;;;;4961288;28;20060;-72
2022/05/13 12:50:53;;;;;;;27.35;25.30;;;16.70;99.90;;;;;;4976965;28;20441;-70
2022/05/13 12:53:29;;;;;;;27.52;25.30;;;16.70;99.90;;;;;;4960183;28;20051;-72
2022/05/13 12:56:07;;;;;;;27.08;24.95;;;16.90;99.90;;;;;;4961803;28;20112;-72
2022/05/13 12:58:39;;;;;;;27.98;25.90;;;17.00;99.90;;;;;;4978049;28;20050;-72
2022/05/13 13:01:09;;;;;;;29.52;27.50;;;17.10;99.90;;;;;;4976979;28;20120;-72
2022/05/13 13:03:42;;;;;;;27.60;25.48;;;16.90;99.90;;;;;;4976222;28;20473;-72
2022/05/13 13:06:16;;;;;;;28.00;26.10;;;16.70;99.90;;;;;;4976589;28;20581;-73
2022/05/13 13:08:46;;;;;;;28.55;26.55;;;16.70;99.90;;;;;;4978741;28;20113;-71
2022/05/13 13:11:35;;;;;;;29.75;27.55;;;16.50;99.90;;;;;;4978289;28;20050;-71
2022/05/13 13:14:36;;;;;;;28.92;26.70;;;16.80;99.90;;;;;;4975243;28;20078;-70
2022/05/13 13:17:20;;;;;;;27.42;25.42;;;16.90;99.90;;;;;;4940521;28;20140;-71
2022/05/13 13:19:51;;;;;;;28.25;26.17;;;16.90;99.90;;;;;;4954626;28;20042;-71
2022/05/13 13:22:22;;;;;;;28.30;26.00;;;16.80;99.90;;;;;;4958372;28;20039;-71